sensor_id;sensor_type;location;lat;lon;timestamp;temperature;humidity
23156;DHT22;11746;50.876;4.246;2023-06-04T00:01:27;17.20;62.50
23156;DHT22;11746;50.876;4.246;2023-06-04T00:03:53;17.20;62.50
23156;DHT22;11746;50.876;4.246;2023-06-04T00:06:18;17.20;62.70
23156;DHT22;11746;50.876;4.246;2023-06-04T00:08:44;17.10;63.00
23156;DHT22;11746;50.876;4.246;2023-06-04T00:11:12;17.10;63.40
23156;DHT22;11746;50.876;4.246;2023-06-04T00:13:38;17.10;63.50
23156;DHT22;11746;50.876;4.246;2023-06-04T00:16:04;17.00;63.40
23156;DHT22;11746;50.876;4.246;2023-06-04T00:18:30;17.00;64.40
23156;DHT22;11746;50.876;4.246;2023-06-04T00:20:55;17.00;63.60
23156;DHT22;11746;50.876;4.246;2023-06-04T00:23:21;16.90;63.70
23156;DHT22;11746;50.876;4.246;2023-06-04T00:25:49;16.80;63.60
23156;DHT22;11746;50.876;4.246;2023-06-04T00:28:16;16.80;64.70
23156;DHT22;11746;50.876;4.246;2023-06-04T00:30:42;16.80;64.10
23156;DHT22;11746;50.876;4.246;2023-06-04T00:33:10;16.60;64.90
23156;DHT22;11746;50.876;4.246;2023-06-04T00:35:38;16.60;64.70
23156;DHT22;11746;50.876;4.246;2023-06-04T00:38:06;16.50;64.90
23156;DHT22;11746;50.876;4.246;2023-06-04T00:40:34;16.50;65.20
23156;DHT22;11746;50.876;4.246;2023-06-04T00:43:00;16.50;65.30
23156;DHT22;11746;50.876;4.246;2023-06-04T00:45:25;16.40;66.20
23156;DHT22;11746;50.876;4.246;2023-06-04T00:47:54;16.20;66.80
23156;DHT22;11746;50.876;4.246;2023-06-04T00:50:21;16.10;67.60
23156;DHT22;11746;50.876;4.246;2023-06-04T00:52:48;16.10;68.00
23156;DHT22;11746;50.876;4.246;2023-06-04T00:55:17;16.10;68.20
23156;DHT22;11746;50.876;4.246;2023-06-04T00:57:48;16.00;68.50
23156;DHT22;11746;50.876;4.246;2023-06-04T01:00:14;16.00;68.60
23156;DHT22;11746;50.876;4.246;2023-06-04T01:02:43;15.80;69.00
23156;DHT22;11746;50.876;4.246;2023-06-04T01:07:45;16.00;69.50
23156;DHT22;11746;50.876;4.246;2023-06-04T01:10:13;15.90;69.70
23156;DHT22;11746;50.876;4.246;2023-06-04T01:12:41;15.90;69.90
23156;DHT22;11746;50.876;4.246;2023-06-04T01:15:08;15.70;70.80
23156;DHT22;11746;50.876;4.246;2023-06-04T01:17:36;15.60;71.30
23156;DHT22;11746;50.876;4.246;2023-06-04T01:25:37;15.40;73.50
23156;DHT22;11746;50.876;4.246;2023-06-04T01:28:05;15.30;74.10
23156;DHT22;11746;50.876;4.246;2023-06-04T01:30:35;15.20;75.20
23156;DHT22;11746;50.876;4.246;2023-06-04T01:33:02;15.10;76.30
23156;DHT22;11746;50.876;4.246;2023-06-04T01:35:30;15.10;77.20
23156;DHT22;11746;50.876;4.246;2023-06-04T01:37:59;14.90;78.30
23156;DHT22;11746;50.876;4.246;2023-06-04T01:40:24;15.00;79.00
23156;DHT22;11746;50.876;4.246;2023-06-04T01:42:51;15.00;80.40
23156;DHT22;11746;50.876;4.246;2023-06-04T01:45:17;15.00;80.70
23156;DHT22;11746;50.876;4.246;2023-06-04T01:47:45;14.90;82.00
23156;DHT22;11746;50.876;4.246;2023-06-04T01:50:10;14.80;83.40
23156;DHT22;11746;50.876;4.246;2023-06-04T01:52:36;14.70;85.20
23156;DHT22;11746;50.876;4.246;2023-06-04T01:55:04;14.60;86.70
23156;DHT22;11746;50.876;4.246;2023-06-04T01:57:30;14.40;88.90
23156;DHT22;11746;50.876;4.246;2023-06-04T01:59:55;14.40;90.50
23156;DHT22;11746;50.876;4.246;2023-06-04T02:02:24;14.40;91.50
23156;DHT22;11746;50.876;4.246;2023-06-04T02:04:50;14.40;92.20
23156;DHT22;11746;50.876;4.246;2023-06-04T02:07:19;14.30;93.20
23156;DHT22;11746;50.876;4.246;2023-06-04T02:09:50;14.40;94.20
23156;DHT22;11746;50.876;4.246;2023-06-04T02:12:16;14.40;95.00
23156;DHT22;11746;50.876;4.246;2023-06-04T02:14:44;14.40;96.00
23156;DHT22;11746;50.876;4.246;2023-06-04T02:17:12;14.40;96.80
23156;DHT22;11746;50.876;4.246;2023-06-04T02:19:40;14.20;98.20
23156;DHT22;11746;50.876;4.246;2023-06-04T02:22:12;14.20;99.40
23156;DHT22;11746;50.876;4.246;2023-06-04T02:24:38;14.20;99.90
23156;DHT22;11746;50.876;4.246;2023-06-04T02:27:05;14.20;99.90
23156;DHT22;11746;50.876;4.246;2023-06-04T02:29:31;14.10;99.90
23156;DHT22;11746;50.876;4.246;2023-06-04T02:31:57;14.20;99.90
23156;DHT22;11746;50.876;4.246;2023-06-04T02:34:23;14.30;99.90
23156;DHT22;11746;50.876;4.246;2023-06-04T02:36:49;14.30;99.90
23156;DHT22;11746;50.876;4.246;2023-06-04T02:39:17;14.20;99.90
23156;DHT22;11746;50.876;4.246;2023-06-04T02:41:43;14.10;99.90
23156;DHT22;11746;50.876;4.246;2023-06-04T02:44:08;14.10;99.90
23156;DHT22;11746;50.876;4.246;2023-06-04T02:46:39;14.10;99.90
23156;DHT22;11746;50.876;4.246;2023-06-04T02:49:05;14.20;99.90
23156;DHT22;11746;50.876;4.246;2023-06-04T02:51:30;14.30;99.90
23156;DHT22;11746;50.876;4.246;2023-06-04T02:53:56;14.30;99.90
23156;DHT22;11746;50.876;4.246;2023-06-04T02:56:22;14.30;99.90
23156;DHT22;11746;50.876;4.246;2023-06-04T03:01:26;14.30;99.90
23156;DHT22;11746;50.876;4.246;2023-06-04T03:03:53;14.20;99.90
23156;DHT22;11746;50.876;4.246;2023-06-04T03:06:19;14.30;99.90
23156;DHT22;11746;50.876;4.246;2023-06-04T03:08:50;14.30;99.90
23156;DHT22;11746;50.876;4.246;2023-06-04T03:11:19;14.30;99.90
23156;DHT22;11746;50.876;4.246;2023-06-04T03:13:48;14.30;99.90
23156;DHT22;11746;50.876;4.246;2023-06-04T03:16:14;14.30;99.90
23156;DHT22;11746;50.876;4.246;2023-06-04T03:18:43;14.10;99.90
23156;DHT22;11746;50.876;4.246;2023-06-04T03:21:10;13.90;99.90
23156;DHT22;11746;50.876;4.246;2023-06-04T03:23:39;13.90;99.90
23156;DHT22;11746;50.876;4.246;2023-06-04T03:26:05;14.00;99.90
23156;DHT22;11746;50.876;4.246;2023-06-04T03:28:36;13.90;99.90
23156;DHT22;11746;50.876;4.246;2023-06-04T03:31:05;13.80;99.90
23156;DHT22;11746;50.876;4.246;2023-06-04T03:33:33;13.70;99.90
23156;DHT22;11746;50.876;4.246;2023-06-04T03:35:58;13.80;99.90
23156;DHT22;11746;50.876;4.246;2023-06-04T03:38:25;13.80;99.90
23156;DHT22;11746;50.876;4.246;2023-06-04T03:40:53;14.00;99.90
23156;DHT22;11746;50.876;4.246;2023-06-04T03:43:20;14.10;99.90
23156;DHT22;11746;50.876;4.246;2023-06-04T03:45:48;14.10;99.90
23156;DHT22;11746;50.876;4.246;2023-06-04T03:48:13;14.10;99.90
23156;DHT22;11746;50.876;4.246;2023-06-04T03:50:39;14.10;99.90
23156;DHT22;11746;50.876;4.246;2023-06-04T03:53:08;14.10;99.90
23156;DHT22;11746;50.876;4.246;2023-06-04T03:55:33;14.10;99.90
23156;DHT22;11746;50.876;4.246;2023-06-04T03:57:59;14.20;99.90
23156;DHT22;11746;50.876;4.246;2023-06-04T04:00:26;14.10;99.90
23156;DHT22;11746;50.876;4.246;2023-06-04T04:02:57;14.00;99.90
23156;DHT22;11746;50.876;4.246;2023-06-04T04:05:23;14.00;99.90
23156;DHT22;11746;50.876;4.246;2023-06-04T04:07:48;14.00;99.90
23156;DHT22;11746;50.876;4.246;2023-06-04T04:10:16;14.10;99.90
23156;DHT22;11746;50.876;4.246;2023-06-04T04:12:41;14.00;99.90
23156;DHT22;11746;50.876;4.246;2023-06-04T04:15:12;14.10;99.90
23156;DHT22;11746;50.876;4.246;2023-06-04T04:17:39;14.10;99.90
23156;DHT22;11746;50.876;4.246;2023-06-04T04:20:08;14.00;99.90
23156;DHT22;11746;50.876;4.246;2023-06-04T04:22:34;14.00;99.90
23156;DHT22;11746;50.876;4.246;2023-06-04T04:24:59;14.20;99.90
23156;DHT22;11746;50.876;4.246;2023-06-04T04:27:28;14.20;99.90
23156;DHT22;11746;50.876;4.246;2023-06-04T04:29:56;14.30;99.90
23156;DHT22;11746;50.876;4.246;2023-06-04T04:32:25;14.30;99.90
23156;DHT22;11746;50.876;4.246;2023-06-04T04:34:53;14.40;99.90
23156;DHT22;11746;50.876;4.246;2023-06-04T04:37:19;14.20;99.90
23156;DHT22;11746;50.876;4.246;2023-06-04T04:39:47;14.30;99.90
23156;DHT22;11746;50.876;4.246;2023-06-04T04:42:13;14.30;99.90
23156;DHT22;11746;50.876;4.246;2023-06-04T04:44:41;14.40;99.90
23156;DHT22;11746;50.876;4.246;2023-06-04T04:47:06;14.30;99.90
23156;DHT22;11746;50.876;4.246;2023-06-04T04:49:32;14.30;99.90
23156;DHT22;11746;50.876;4.246;2023-06-04T04:51:59;14.30;99.90
23156;DHT22;11746;50.876;4.246;2023-06-04T04:54:25;14.40;99.90
23156;DHT22;11746;50.876;4.246;2023-06-04T04:56:53;14.40;99.90
23156;DHT22;11746;50.876;4.246;2023-06-04T04:59:19;14.40;99.90
23156;DHT22;11746;50.876;4.246;2023-06-04T05:01:46;14.40;99.90
23156;DHT22;11746;50.876;4.246;2023-06-04T05:04:12;14.50;99.90
23156;DHT22;11746;50.876;4.246;2023-06-04T05:06:40;14.60;99.90
23156;DHT22;11746;50.876;4.246;2023-06-04T05:09:06;14.50;99.90
23156;DHT22;11746;50.876;4.246;2023-06-04T05:11:32;14.50;99.90
23156;DHT22;11746;50.876;4.246;2023-06-04T05:14:01;14.50;99.90
23156;DHT22;11746;50.876;4.246;2023-06-04T05:16:26;14.60;99.90
23156;DHT22;11746;50.876;4.246;2023-06-04T05:18:53;14.70;99.90
23156;DHT22;11746;50.876;4.246;2023-06-04T05:21:22;14.60;99.90
23156;DHT22;11746;50.876;4.246;2023-06-04T05:23:47;14.60;99.90
23156;DHT22;11746;50.876;4.246;2023-06-04T05:26:13;14.80;99.90
23156;DHT22;11746;50.876;4.246;2023-06-04T05:28:40;14.80;99.90
23156;DHT22;11746;50.876;4.246;2023-06-04T05:31:11;14.90;99.90
23156;DHT22;11746;50.876;4.246;2023-06-04T05:33:40;14.90;99.90
23156;DHT22;11746;50.876;4.246;2023-06-04T05:36:06;14.90;99.90
23156;DHT22;11746;50.876;4.246;2023-06-04T05:38:32;15.10;99.90
23156;DHT22;11746;50.876;4.246;2023-06-04T05:40:57;15.30;99.90
23156;DHT22;11746;50.876;4.246;2023-06-04T05:43:26;15.20;99.90
23156;DHT22;11746;50.876;4.246;2023-06-04T05:45:52;15.00;99.90
23156;DHT22;11746;50.876;4.246;2023-06-04T05:48:18;15.00;99.90
23156;DHT22;11746;50.876;4.246;2023-06-04T05:50:43;15.00;99.90
23156;DHT22;11746;50.876;4.246;2023-06-04T05:53:10;15.20;99.90
23156;DHT22;11746;50.876;4.246;2023-06-04T05:55:38;15.20;99.90
23156;DHT22;11746;50.876;4.246;2023-06-04T05:58:08;15.30;99.90
23156;DHT22;11746;50.876;4.246;2023-06-04T06:00:34;15.40;99.90
23156;DHT22;11746;50.876;4.246;2023-06-04T06:03:00;15.40;99.90
23156;DHT22;11746;50.876;4.246;2023-06-04T06:05:26;15.50;99.90
23156;DHT22;11746;50.876;4.246;2023-06-04T06:07:52;15.40;99.90
23156;DHT22;11746;50.876;4.246;2023-06-04T06:10:18;15.40;99.90
23156;DHT22;11746;50.876;4.246;2023-06-04T06:12:44;15.50;99.90
23156;DHT22;11746;50.876;4.246;2023-06-04T06:15:10;15.60;99.90
23156;DHT22;11746;50.876;4.246;2023-06-04T06:17:40;15.60;99.90
23156;DHT22;11746;50.876;4.246;2023-06-04T06:20:08;15.60;99.90
23156;DHT22;11746;50.876;4.246;2023-06-04T06:22:39;15.80;99.90
23156;DHT22;11746;50.876;4.246;2023-06-04T06:25:07;15.90;99.90
23156;DHT22;11746;50.876;4.246;2023-06-04T06:27:33;15.90;99.90
23156;DHT22;11746;50.876;4.246;2023-06-04T06:29:58;15.90;99.90
23156;DHT22;11746;50.876;4.246;2023-06-04T06:32:24;15.90;99.90
23156;DHT22;11746;50.876;4.246;2023-06-04T06:34:50;16.00;99.90
23156;DHT22;11746;50.876;4.246;2023-06-04T06:37:16;16.10;99.90
23156;DHT22;11746;50.876;4.246;2023-06-04T06:39:44;16.20;99.90
23156;DHT22;11746;50.876;4.246;2023-06-04T06:42:09;16.20;99.90
23156;DHT22;11746;50.876;4.246;2023-06-04T06:44:35;16.30;99.90
23156;DHT22;11746;50.876;4.246;2023-06-04T06:47:03;16.40;99.90
23156;DHT22;11746;50.876;4.246;2023-06-04T06:49:28;16.40;99.90
23156;DHT22;11746;50.876;4.246;2023-06-04T06:51:54;16.40;99.90
23156;DHT22;11746;50.876;4.246;2023-06-04T06:54:22;16.40;99.90
23156;DHT22;11746;50.876;4.246;2023-06-04T06:56:48;16.50;99.90
23156;DHT22;11746;50.876;4.246;2023-06-04T06:59:17;16.60;99.90
23156;DHT22;11746;50.876;4.246;2023-06-04T07:01:43;16.50;99.90
23156;DHT22;11746;50.876;4.246;2023-06-04T07:04:09;16.50;99.90
23156;DHT22;11746;50.876;4.246;2023-06-04T07:06:34;16.50;99.90
23156;DHT22;11746;50.876;4.246;2023-06-04T07:09:02;16.80;99.90
23156;DHT22;11746;50.876;4.246;2023-06-04T07:11:29;16.90;99.90
23156;DHT22;11746;50.876;4.246;2023-06-04T07:13:57;17.00;99.90
23156;DHT22;11746;50.876;4.246;2023-06-04T07:16:27;17.00;99.90
23156;DHT22;11746;50.876;4.246;2023-06-04T07:18:53;17.20;99.90
23156;DHT22;11746;50.876;4.246;2023-06-04T07:21:20;17.30;99.90
23156;DHT22;11746;50.876;4.246;2023-06-04T07:23:51;17.40;99.90
23156;DHT22;11746;50.876;4.246;2023-06-04T07:26:17;17.50;99.90
23156;DHT22;11746;50.876;4.246;2023-06-04T07:28:43;17.60;99.90
23156;DHT22;11746;50.876;4.246;2023-06-04T07:31:09;17.70;99.70
23156;DHT22;11746;50.876;4.246;2023-06-04T07:33:35;17.70;98.70
23156;DHT22;11746;50.876;4.246;2023-06-04T07:36:12;17.90;98.20
23156;DHT22;11746;50.876;4.246;2023-06-04T07:38:40;18.00;97.60
23156;DHT22;11746;50.876;4.246;2023-06-04T07:41:06;18.10;97.70
23156;DHT22;11746;50.876;4.246;2023-06-04T07:43:33;18.30;96.90
23156;DHT22;11746;50.876;4.246;2023-06-04T07:46:00;18.30;97.00
23156;DHT22;11746;50.876;4.246;2023-06-04T07:48:26;18.30;96.50
23156;DHT22;11746;50.876;4.246;2023-06-04T07:50:57;18.30;95.40
23156;DHT22;11746;50.876;4.246;2023-06-04T07:53:22;18.40;94.90
23156;DHT22;11746;50.876;4.246;2023-06-04T07:55:53;18.40;95.30
23156;DHT22;11746;50.876;4.246;2023-06-04T07:58:21;18.60;95.40
23156;DHT22;11746;50.876;4.246;2023-06-04T08:00:49;18.70;93.30
23156;DHT22;11746;50.876;4.246;2023-06-04T08:03:14;18.70;93.80
23156;DHT22;11746;50.876;4.246;2023-06-04T08:05:43;18.90;92.30
23156;DHT22;11746;50.876;4.246;2023-06-04T08:08:11;19.10;92.60
23156;DHT22;11746;50.876;4.246;2023-06-04T08:10:37;19.20;91.40
23156;DHT22;11746;50.876;4.246;2023-06-04T08:13:06;19.30;91.30
23156;DHT22;11746;50.876;4.246;2023-06-04T08:15:35;19.30;90.50
23156;DHT22;11746;50.876;4.246;2023-06-04T08:18:00;19.30;91.10
23156;DHT22;11746;50.876;4.246;2023-06-04T08:20:26;19.40;90.70
23156;DHT22;11746;50.876;4.246;2023-06-04T08:22:52;19.40;90.10
23156;DHT22;11746;50.876;4.246;2023-06-04T08:25:20;19.60;88.80
23156;DHT22;11746;50.876;4.246;2023-06-04T08:27:48;19.70;89.40
23156;DHT22;11746;50.876;4.246;2023-06-04T08:30:15;19.80;88.50
23156;DHT22;11746;50.876;4.246;2023-06-04T08:32:41;20.00;86.70
23156;DHT22;11746;50.876;4.246;2023-06-04T08:35:09;19.90;85.80
23156;DHT22;11746;50.876;4.246;2023-06-04T08:37:35;19.90;85.20
23156;DHT22;11746;50.876;4.246;2023-06-04T08:40:01;19.90;84.00
23156;DHT22;11746;50.876;4.246;2023-06-04T08:42:31;20.00;82.50
23156;DHT22;11746;50.876;4.246;2023-06-04T08:45:02;20.10;84.30
23156;DHT22;11746;50.876;4.246;2023-06-04T08:47:32;20.20;82.20
23156;DHT22;11746;50.876;4.246;2023-06-04T08:50:00;20.10;81.40
23156;DHT22;11746;50.876;4.246;2023-06-04T08:52:26;20.10;82.90
23156;DHT22;11746;50.876;4.246;2023-06-04T08:54:57;20.30;81.30
23156;DHT22;11746;50.876;4.246;2023-06-04T08:57:24;20.50;80.50
23156;DHT22;11746;50.876;4.246;2023-06-04T08:59:50;20.50;79.90
23156;DHT22;11746;50.876;4.246;2023-06-04T09:02:18;20.70;78.20
23156;DHT22;11746;50.876;4.246;2023-06-04T09:04:46;20.60;78.40
23156;DHT22;11746;50.876;4.246;2023-06-04T09:07:13;20.70;76.70
23156;DHT22;11746;50.876;4.246;2023-06-04T09:09:40;20.80;76.90
23156;DHT22;11746;50.876;4.246;2023-06-04T09:12:16;21.00;76.60
23156;DHT22;11746;50.876;4.246;2023-06-04T09:14:45;21.20;75.30
23156;DHT22;11746;50.876;4.246;2023-06-04T09:17:12;21.50;73.90
23156;DHT22;11746;50.876;4.246;2023-06-04T09:19:37;21.50;72.20
23156;DHT22;11746;50.876;4.246;2023-06-04T09:22:05;21.70;71.60
23156;DHT22;11746;50.876;4.246;2023-06-04T09:24:44;21.70;71.00
23156;DHT22;11746;50.876;4.246;2023-06-04T09:27:15;21.70;70.20
23156;DHT22;11746;50.876;4.246;2023-06-04T09:29:49;21.70;71.70
23156;DHT22;11746;50.876;4.246;2023-06-04T09:32:21;21.70;71.90
23156;DHT22;11746;50.876;4.246;2023-06-04T09:34:46;21.90;69.30
23156;DHT22;11746;50.876;4.246;2023-06-04T09:37:16;21.90;69.30
23156;DHT22;11746;50.876;4.246;2023-06-04T09:40:04;21.80;69.60
23156;DHT22;11746;50.876;4.246;2023-06-04T09:42:44;22.00;69.20
23156;DHT22;11746;50.876;4.246;2023-06-04T09:45:11;22.10;69.80
23156;DHT22;11746;50.876;4.246;2023-06-04T09:47:45;22.10;69.90
23156;DHT22;11746;50.876;4.246;2023-06-04T09:50:11;22.10;68.00
23156;DHT22;11746;50.876;4.246;2023-06-04T09:52:37;22.10;67.10
23156;DHT22;11746;50.876;4.246;2023-06-04T09:55:18;21.90;66.80
23156;DHT22;11746;50.876;4.246;2023-06-04T09:57:50;22.00;67.60
23156;DHT22;11746;50.876;4.246;2023-06-04T10:00:17;22.30;67.00
23156;DHT22;11746;50.876;4.246;2023-06-04T10:02:46;22.20;66.50
23156;DHT22;11746;50.876;4.246;2023-06-04T10:05:13;22.30;67.10
23156;DHT22;11746;50.876;4.246;2023-06-04T10:07:45;22.50;65.50
23156;DHT22;11746;50.876;4.246;2023-06-04T10:10:16;22.70;66.10
23156;DHT22;11746;50.876;4.246;2023-06-04T10:12:43;22.80;64.90
23156;DHT22;11746;50.876;4.246;2023-06-04T10:15:14;23.00;64.40
23156;DHT22;11746;50.876;4.246;2023-06-04T10:17:47;23.10;64.60
23156;DHT22;11746;50.876;4.246;2023-06-04T10:20:16;23.10;64.70
23156;DHT22;11746;50.876;4.246;2023-06-04T10:22:45;23.10;63.80
23156;DHT22;11746;50.876;4.246;2023-06-04T10:25:11;23.20;64.30
23156;DHT22;11746;50.876;4.246;2023-06-04T10:27:37;23.10;63.20
23156;DHT22;11746;50.876;4.246;2023-06-04T10:30:05;23.10;62.60
23156;DHT22;11746;50.876;4.246;2023-06-04T10:32:32;23.10;61.80
23156;DHT22;11746;50.876;4.246;2023-06-04T10:34:57;23.30;60.30
23156;DHT22;11746;50.876;4.246;2023-06-04T10:37:25;23.30;60.90
23156;DHT22;11746;50.876;4.246;2023-06-04T10:39:52;23.40;61.60
23156;DHT22;11746;50.876;4.246;2023-06-04T10:42:23;23.60;62.90
23156;DHT22;11746;50.876;4.246;2023-06-04T10:44:53;23.60;60.70
23156;DHT22;11746;50.876;4.246;2023-06-04T10:47:24;23.50;61.50
23156;DHT22;11746;50.876;4.246;2023-06-04T10:49:54;23.50;61.50
23156;DHT22;11746;50.876;4.246;2023-06-04T10:52:21;23.70;62.10
23156;DHT22;11746;50.876;4.246;2023-06-04T10:54:47;23.80;61.30
23156;DHT22;11746;50.876;4.246;2023-06-04T10:57:19;24.00;59.90
23156;DHT22;11746;50.876;4.246;2023-06-04T10:59:58;24.10;60.20
23156;DHT22;11746;50.876;4.246;2023-06-04T11:02:24;24.20;59.90
23156;DHT22;11746;50.876;4.246;2023-06-04T11:05:04;24.30;59.10
23156;DHT22;11746;50.876;4.246;2023-06-04T11:07:45;24.40;59.00
23156;DHT22;11746;50.876;4.246;2023-06-04T11:10:14;24.50;58.40
23156;DHT22;11746;50.876;4.246;2023-06-04T11:12:50;24.50;58.30
23156;DHT22;11746;50.876;4.246;2023-06-04T11:15:16;24.60;58.40
23156;DHT22;11746;50.876;4.246;2023-06-04T11:17:49;24.70;58.30
23156;DHT22;11746;50.876;4.246;2023-06-04T11:20:16;24.80;57.70
23156;DHT22;11746;50.876;4.246;2023-06-04T11:22:42;24.60;57.30
23156;DHT22;11746;50.876;4.246;2023-06-04T11:25:16;24.70;57.40
23156;DHT22;11746;50.876;4.246;2023-06-04T11:27:42;24.70;57.70
23156;DHT22;11746;50.876;4.246;2023-06-04T11:30:10;24.60;57.90
23156;DHT22;11746;50.876;4.246;2023-06-04T11:32:37;24.50;57.60
23156;DHT22;11746;50.876;4.246;2023-06-04T11:35:04;24.50;58.00
23156;DHT22;11746;50.876;4.246;2023-06-04T11:37:31;24.70;57.40
23156;DHT22;11746;50.876;4.246;2023-06-04T11:39:59;24.80;57.10
23156;DHT22;11746;50.876;4.246;2023-06-04T11:42:27;25.00;57.30
23156;DHT22;11746;50.876;4.246;2023-06-04T11:44:58;25.10;56.60
23156;DHT22;11746;50.876;4.246;2023-06-04T11:47:24;25.20;56.70
23156;DHT22;11746;50.876;4.246;2023-06-04T11:49:56;25.40;57.20
23156;DHT22;11746;50.876;4.246;2023-06-04T11:52:22;25.30;56.20
23156;DHT22;11746;50.876;4.246;2023-06-04T11:54:51;25.50;56.10
23156;DHT22;11746;50.876;4.246;2023-06-04T11:57:19;25.80;55.40
23156;DHT22;11746;50.876;4.246;2023-06-04T11:59:45;25.70;53.80
23156;DHT22;11746;50.876;4.246;2023-06-04T12:02:11;25.50;55.00
23156;DHT22;11746;50.876;4.246;2023-06-04T12:04:37;25.70;55.50
23156;DHT22;11746;50.876;4.246;2023-06-04T12:07:04;25.80;55.20
23156;DHT22;11746;50.876;4.246;2023-06-04T12:09:33;25.80;54.50
23156;DHT22;11746;50.876;4.246;2023-06-04T12:12:04;25.80;54.80
23156;DHT22;11746;50.876;4.246;2023-06-04T12:14:31;26.00;53.80
23156;DHT22;11746;50.876;4.246;2023-06-04T12:17:00;26.10;53.70
23156;DHT22;11746;50.876;4.246;2023-06-04T12:19:27;26.10;53.40
23156;DHT22;11746;50.876;4.246;2023-06-04T12:22:03;26.20;53.00
23156;DHT22;11746;50.876;4.246;2023-06-04T12:24:33;26.20;53.50
23156;DHT22;11746;50.876;4.246;2023-06-04T12:27:06;26.00;54.10
23156;DHT22;11746;50.876;4.246;2023-06-04T12:29:35;26.00;53.60
23156;DHT22;11746;50.876;4.246;2023-06-04T12:32:05;26.00;53.80
23156;DHT22;11746;50.876;4.246;2023-06-04T12:34:35;26.10;53.40
23156;DHT22;11746;50.876;4.246;2023-06-04T12:37:03;26.30;54.60
23156;DHT22;11746;50.876;4.246;2023-06-04T12:39:34;26.50;53.20
23156;DHT22;11746;50.876;4.246;2023-06-04T12:42:05;26.50;52.50
23156;DHT22;11746;50.876;4.246;2023-06-04T12:44:31;26.70;52.40
23156;DHT22;11746;50.876;4.246;2023-06-04T12:46:56;26.80;52.40
23156;DHT22;11746;50.876;4.246;2023-06-04T12:49:22;26.60;51.90
23156;DHT22;11746;50.876;4.246;2023-06-04T12:51:48;26.70;51.70
23156;DHT22;11746;50.876;4.246;2023-06-04T12:54:13;26.30;52.50
23156;DHT22;11746;50.876;4.246;2023-06-04T12:56:40;26.30;52.60
23156;DHT22;11746;50.876;4.246;2023-06-04T12:59:09;26.50;52.80
23156;DHT22;11746;50.876;4.246;2023-06-04T13:01:34;26.60;51.70
23156;DHT22;11746;50.876;4.246;2023-06-04T13:04:00;26.60;52.30
23156;DHT22;11746;50.876;4.246;2023-06-04T13:06:30;26.60;52.00
23156;DHT22;11746;50.876;4.246;2023-06-04T13:08:56;26.60;52.60
23156;DHT22;11746;50.876;4.246;2023-06-04T13:11:21;26.90;51.60
23156;DHT22;11746;50.876;4.246;2023-06-04T13:13:48;27.00;51.50
23156;DHT22;11746;50.876;4.246;2023-06-04T13:16:16;27.00;50.10
23156;DHT22;11746;50.876;4.246;2023-06-04T13:18:44;27.00;51.50
23156;DHT22;11746;50.876;4.246;2023-06-04T13:21:09;27.20;50.60
23156;DHT22;11746;50.876;4.246;2023-06-04T13:23:35;27.20;50.70
23156;DHT22;11746;50.876;4.246;2023-06-04T13:26:01;27.40;49.80
23156;DHT22;11746;50.876;4.246;2023-06-04T13:28:28;27.60;50.10
23156;DHT22;11746;50.876;4.246;2023-06-04T13:30:59;27.80;50.20
23156;DHT22;11746;50.876;4.246;2023-06-04T13:33:25;28.00;49.50
23156;DHT22;11746;50.876;4.246;2023-06-04T13:35:55;28.00;49.40
23156;DHT22;11746;50.876;4.246;2023-06-04T13:38:20;27.90;49.30
23156;DHT22;11746;50.876;4.246;2023-06-04T13:40:46;28.10;49.40
23156;DHT22;11746;50.876;4.246;2023-06-04T13:43:12;28.30;48.80
23156;DHT22;11746;50.876;4.246;2023-06-04T13:45:37;28.20;48.70
23156;DHT22;11746;50.876;4.246;2023-06-04T13:48:05;28.10;49.10
23156;DHT22;11746;50.876;4.246;2023-06-04T13:50:32;28.30;48.70
23156;DHT22;11746;50.876;4.246;2023-06-04T13:52:58;28.20;47.80
23156;DHT22;11746;50.876;4.246;2023-06-04T13:55:26;27.90;47.50
23156;DHT22;11746;50.876;4.246;2023-06-04T13:57:52;28.00;47.70
23156;DHT22;11746;50.876;4.246;2023-06-04T14:00:18;28.40;47.80
23156;DHT22;11746;50.876;4.246;2023-06-04T14:02:43;28.70;47.50
23156;DHT22;11746;50.876;4.246;2023-06-04T14:05:09;28.90;47.60
23156;DHT22;11746;50.876;4.246;2023-06-04T14:07:35;28.90;46.30
23156;DHT22;11746;50.876;4.246;2023-06-04T14:10:01;29.00;46.40
23156;DHT22;11746;50.876;4.246;2023-06-04T14:12:29;29.50;46.80
23156;DHT22;11746;50.876;4.246;2023-06-04T14:14:54;29.60;46.30
23156;DHT22;11746;50.876;4.246;2023-06-04T14:17:20;29.60;46.10
23156;DHT22;11746;50.876;4.246;2023-06-04T14:19:46;29.40;46.30
23156;DHT22;11746;50.876;4.246;2023-06-04T14:22:11;29.20;45.90
23156;DHT22;11746;50.876;4.246;2023-06-04T14:24:39;28.80;45.80
23156;DHT22;11746;50.876;4.246;2023-06-04T14:27:05;28.60;46.20
23156;DHT22;11746;50.876;4.246;2023-06-04T14:29:32;28.60;45.80
23156;DHT22;11746;50.876;4.246;2023-06-04T14:31:57;28.60;47.40
23156;DHT22;11746;50.876;4.246;2023-06-04T14:34:24;28.90;47.80
23156;DHT22;11746;50.876;4.246;2023-06-04T14:36:49;29.20;46.90
23156;DHT22;11746;50.876;4.246;2023-06-04T14:39:17;29.20;44.90
23156;DHT22;11746;50.876;4.246;2023-06-04T14:41:43;29.30;45.10
23156;DHT22;11746;50.876;4.246;2023-06-04T14:44:08;29.60;44.80
23156;DHT22;11746;50.876;4.246;2023-06-04T14:46:36;29.80;44.40
23156;DHT22;11746;50.876;4.246;2023-06-04T14:49:02;29.60;44.60
23156;DHT22;11746;50.876;4.246;2023-06-04T14:51:29;29.90;45.10
23156;DHT22;11746;50.876;4.246;2023-06-04T14:53:56;29.80;44.90
23156;DHT22;11746;50.876;4.246;2023-06-04T14:56:25;29.70;44.50
23156;DHT22;11746;50.876;4.246;2023-06-04T14:58:52;29.50;44.90
23156;DHT22;11746;50.876;4.246;2023-06-04T15:01:17;30.00;44.50
23156;DHT22;11746;50.876;4.246;2023-06-04T15:03:45;30.40;44.40
23156;DHT22;11746;50.876;4.246;2023-06-04T15:06:11;30.30;43.70
23156;DHT22;11746;50.876;4.246;2023-06-04T15:08:37;30.00;43.70
23156;DHT22;11746;50.876;4.246;2023-06-04T15:11:05;29.80;44.30
23156;DHT22;11746;50.876;4.246;2023-06-04T15:13:30;30.00;44.00
23156;DHT22;11746;50.876;4.246;2023-06-04T15:15:58;29.80;44.70
23156;DHT22;11746;50.876;4.246;2023-06-04T15:18:24;29.70;44.20
23156;DHT22;11746;50.876;4.246;2023-06-04T15:20:49;30.00;44.70
23156;DHT22;11746;50.876;4.246;2023-06-04T15:23:15;30.20;44.70
23156;DHT22;11746;50.876;4.246;2023-06-04T15:25:43;30.60;44.60
23156;DHT22;11746;50.876;4.246;2023-06-04T15:28:09;31.10;43.20
23156;DHT22;11746;50.876;4.246;2023-06-04T15:30:37;31.20;43.70
23156;DHT22;11746;50.876;4.246;2023-06-04T15:33:05;31.00;43.40
23156;DHT22;11746;50.876;4.246;2023-06-04T15:35:31;31.30;44.20
23156;DHT22;11746;50.876;4.246;2023-06-04T15:37:59;30.80;43.40
23156;DHT22;11746;50.876;4.246;2023-06-04T15:40:25;31.00;43.30
23156;DHT22;11746;50.876;4.246;2023-06-04T15:42:50;30.90;42.90